sensor_id;sensor_type;location;lat;lon;timestamp;P1;durP1;ratioP1;P2;durP2;ratioP2
22318;SDS011;11327;52.334;9.506;2023-09-30T00:02:16;12.90;;;3.77;;
22318;SDS011;11327;52.334;9.506;2023-09-30T00:05:37;11.63;;;3.60;;
22318;SDS011;11327;52.334;9.506;2023-09-30T00:08:58;11.00;;;3.40;;
22318;SDS011;11327;52.334;9.506;2023-09-30T00:12:18;10.38;;;3.30;;
22318;SDS011;11327;52.334;9.506;2023-09-30T00:15:39;11.10;;;3.50;;
22318;SDS011;11327;52.334;9.506;2023-09-30T00:19:01;13.13;;;3.87;;
22318;SDS011;11327;52.334;9.506;2023-09-30T00:22:23;14.18;;;4.03;;
22318;SDS011;11327;52.334;9.506;2023-09-30T00:25:44;9.88;;;3.10;;
22318;SDS011;11327;52.334;9.506;2023-09-30T00:29:05;13.83;;;3.50;;
22318;SDS011;11327;52.334;9.506;2023-09-30T00:32:26;10.78;;;3.37;;
22318;SDS011;11327;52.334;9.506;2023-09-30T00:35:46;14.10;;;3.70;;
22318;SDS011;11327;52.334;9.506;2023-09-30T00:39:07;10.68;;;3.02;;
22318;SDS011;11327;52.334;9.506;2023-09-30T00:42:28;10.40;;;3.27;;
22318;SDS011;11327;52.334;9.506;2023-09-30T00:45:51;15.20;;;3.60;;
22318;SDS011;11327;52.334;9.506;2023-09-30T00:49:30;10.82;;;2.75;;
22318;SDS011;11327;52.334;9.506;2023-09-30T00:52:53;10.63;;;3.20;;
22318;SDS011;11327;52.334;9.506;2023-09-30T00:56:13;10.70;;;3.60;;
22318;SDS011;11327;52.334;9.506;2023-09-30T00:59:34;9.78;;;2.77;;
22318;SDS011;11327;52.334;9.506;2023-09-30T01:02:55;9.83;;;3.47;;
22318;SDS011;11327;52.334;9.506;2023-09-30T01:06:17;10.05;;;3.00;;
22318;SDS011;11327;52.334;9.506;2023-09-30T01:09:38;12.58;;;3.30;;
22318;SDS011;11327;52.334;9.506;2023-09-30T01:12:58;11.50;;;3.27;;
22318;SDS011;11327;52.334;9.506;2023-09-30T01:16:19;9.28;;;2.90;;
22318;SDS011;11327;52.334;9.506;2023-09-30T01:19:40;16.45;;;3.70;;
22318;SDS011;11327;52.334;9.506;2023-09-30T01:23:03;9.83;;;2.83;;
22318;SDS011;11327;52.334;9.506;2023-09-30T01:26:24;13.78;;;3.58;;
22318;SDS011;11327;52.334;9.506;2023-09-30T01:29:44;9.80;;;2.98;;
22318;SDS011;11327;52.334;9.506;2023-09-30T01:33:05;14.47;;;3.12;;
22318;SDS011;11327;52.334;9.506;2023-09-30T01:36:28;9.33;;;2.67;;
22318;SDS011;11327;52.334;9.506;2023-09-30T01:39:49;12.55;;;3.37;;
22318;SDS011;11327;52.334;9.506;2023-09-30T01:43:10;12.75;;;3.20;;
22318;SDS011;11327;52.334;9.506;2023-09-30T01:46:33;10.23;;;2.98;;
22318;SDS011;11327;52.334;9.506;2023-09-30T01:49:54;12.30;;;3.02;;
22318;SDS011;11327;52.334;9.506;2023-09-30T01:53:15;10.95;;;2.65;;
22318;SDS011;11327;52.334;9.506;2023-09-30T01:56:35;8.88;;;2.70;;
22318;SDS011;11327;52.334;9.506;2023-09-30T01:59:56;11.43;;;3.15;;
22318;SDS011;11327;52.334;9.506;2023-09-30T02:03:17;8.38;;;2.98;;
22318;SDS011;11327;52.334;9.506;2023-09-30T02:06:38;12.37;;;3.35;;
22318;SDS011;11327;52.334;9.506;2023-09-30T02:09:58;12.82;;;3.15;;
22318;SDS011;11327;52.334;9.506;2023-09-30T02:13:19;11.33;;;3.12;;
22318;SDS011;11327;52.334;9.506;2023-09-30T02:16:40;8.23;;;3.05;;
22318;SDS011;11327;52.334;9.506;2023-09-30T02:20:01;11.30;;;3.33;;
22318;SDS011;11327;52.334;9.506;2023-09-30T02:23:23;12.68;;;3.45;;
22318;SDS011;11327;52.334;9.506;2023-09-30T02:26:45;11.60;;;3.27;;
22318;SDS011;11327;52.334;9.506;2023-09-30T02:30:06;10.85;;;3.52;;
22318;SDS011;11327;52.334;9.506;2023-09-30T02:33:28;13.40;;;4.17;;
22318;SDS011;11327;52.334;9.506;2023-09-30T02:36:48;11.83;;;3.30;;
22318;SDS011;11327;52.334;9.506;2023-09-30T02:40:10;13.58;;;3.83;;
22318;SDS011;11327;52.334;9.506;2023-09-30T02:43:31;12.28;;;3.92;;
22318;SDS011;11327;52.334;9.506;2023-09-30T02:46:52;15.72;;;4.05;;
22318;SDS011;11327;52.334;9.506;2023-09-30T02:50:13;12.40;;;4.53;;
22318;SDS011;11327;52.334;9.506;2023-09-30T02:53:34;11.97;;;3.90;;
22318;SDS011;11327;52.334;9.506;2023-09-30T02:56:55;22.32;;;4.20;;
22318;SDS011;11327;52.334;9.506;2023-09-30T03:00:16;12.80;;;4.33;;
22318;SDS011;11327;52.334;9.506;2023-09-30T03:03:45;10.53;;;3.40;;
22318;SDS011;11327;52.334;9.506;2023-09-30T03:07:06;13.58;;;3.62;;
22318;SDS011;11327;52.334;9.506;2023-09-30T03:10:27;13.48;;;3.72;;
22318;SDS011;11327;52.334;9.506;2023-09-30T03:13:49;11.28;;;4.15;;
22318;SDS011;11327;52.334;9.506;2023-09-30T03:17:11;13.20;;;3.42;;
22318;SDS011;11327;52.334;9.506;2023-09-30T03:20:32;10.88;;;3.37;;
22318;SDS011;11327;52.334;9.506;2023-09-30T03:23:52;12.33;;;3.70;;
22318;SDS011;11327;52.334;9.506;2023-09-30T03:27:13;12.70;;;4.03;;
22318;SDS011;11327;52.334;9.506;2023-09-30T03:30:35;12.25;;;3.40;;
22318;SDS011;11327;52.334;9.506;2023-09-30T03:33:56;11.00;;;3.25;;
22318;SDS011;11327;52.334;9.506;2023-09-30T03:37:17;10.53;;;3.27;;
22318;SDS011;11327;52.334;9.506;2023-09-30T03:40:40;8.58;;;3.37;;
22318;SDS011;11327;52.334;9.506;2023-09-30T03:44:03;12.37;;;3.62;;
22318;SDS011;11327;52.334;9.506;2023-09-30T03:47:24;11.40;;;3.67;;
22318;SDS011;11327;52.334;9.506;2023-09-30T03:50:45;12.03;;;3.80;;
22318;SDS011;11327;52.334;9.506;2023-09-30T03:54:05;10.85;;;3.50;;
22318;SDS011;11327;52.334;9.506;2023-09-30T03:57:26;10.53;;;3.83;;
22318;SDS011;11327;52.334;9.506;2023-09-30T04:00:48;10.35;;;3.58;;
22318;SDS011;11327;52.334;9.506;2023-09-30T04:04:09;10.55;;;3.80;;
22318;SDS011;11327;52.334;9.506;2023-09-30T04:07:30;12.13;;;4.00;;
22318;SDS011;11327;52.334;9.506;2023-09-30T04:10:51;10.80;;;3.55;;
22318;SDS011;11327;52.334;9.506;2023-09-30T04:14:12;10.03;;;3.45;;
22318;SDS011;11327;52.334;9.506;2023-09-30T04:17:32;9.58;;;3.70;;
22318;SDS011;11327;52.334;9.506;2023-09-30T04:20:53;11.15;;;3.42;;
22318;SDS011;11327;52.334;9.506;2023-09-30T04:24:14;9.20;;;3.52;;
22318;SDS011;11327;52.334;9.506;2023-09-30T04:27:35;9.83;;;3.35;;
22318;SDS011;11327;52.334;9.506;2023-09-30T04:30:56;10.18;;;3.70;;
22318;SDS011;11327;52.334;9.506;2023-09-30T04:34:18;9.43;;;3.80;;
22318;SDS011;11327;52.334;9.506;2023-09-30T04:37:39;10.85;;;3.90;;
22318;SDS011;11327;52.334;9.506;2023-09-30T04:41:00;10.03;;;3.72;;
22318;SDS011;11327;52.334;9.506;2023-09-30T04:44:21;12.20;;;4.35;;
22318;SDS011;11327;52.334;9.506;2023-09-30T04:47:43;10.38;;;3.65;;
22318;SDS011;11327;52.334;9.506;2023-09-30T04:51:08;9.53;;;3.60;;
22318;SDS011;11327;52.334;9.506;2023-09-30T04:54:29;10.63;;;3.58;;
22318;SDS011;11327;52.334;9.506;2023-09-30T04:57:50;10.65;;;3.37;;
22318;SDS011;11327;52.334;9.506;2023-09-30T05:01:11;10.60;;;3.45;;
22318;SDS011;11327;52.334;9.506;2023-09-30T05:04:32;9.55;;;3.22;;
22318;SDS011;11327;52.334;9.506;2023-09-30T05:07:53;10.95;;;3.95;;
22318;SDS011;11327;52.334;9.506;2023-09-30T05:11:14;8.63;;;3.20;;
22318;SDS011;11327;52.334;9.506;2023-09-30T05:14:35;12.73;;;3.22;;
22318;SDS011;11327;52.334;9.506;2023-09-30T05:17:57;10.32;;;3.35;;
22318;SDS011;11327;52.334;9.506;2023-09-30T05:21:17;11.25;;;2.83;;
22318;SDS011;11327;52.334;9.506;2023-09-30T05:24:38;8.78;;;2.83;;
22318;SDS011;11327;52.334;9.506;2023-09-30T05:27:59;10.82;;;3.60;;
22318;SDS011;11327;52.334;9.506;2023-09-30T05:31:19;10.88;;;3.02;;
22318;SDS011;11327;52.334;9.506;2023-09-30T05:34:41;9.50;;;3.17;;
22318;SDS011;11327;52.334;9.506;2023-09-30T05:38:02;10.45;;;3.10;;
22318;SDS011;11327;52.334;9.506;2023-09-30T05:41:24;13.35;;;2.95;;
22318;SDS011;11327;52.334;9.506;2023-09-30T05:44:45;9.05;;;2.95;;
22318;SDS011;11327;52.334;9.506;2023-09-30T05:48:06;7.25;;;2.67;;
22318;SDS011;11327;52.334;9.506;2023-09-30T05:51:27;10.38;;;2.80;;
22318;SDS011;11327;52.334;9.506;2023-09-30T05:54:48;6.85;;;2.60;;
22318;SDS011;11327;52.334;9.506;2023-09-30T05:58:09;9.85;;;3.17;;
22318;SDS011;11327;52.334;9.506;2023-09-30T06:01:30;9.93;;;2.95;;
22318;SDS011;11327;52.334;9.506;2023-09-30T06:04:52;8.75;;;2.75;;
22318;SDS011;11327;52.334;9.506;2023-09-30T06:08:14;7.37;;;2.55;;
22318;SDS011;11327;52.334;9.506;2023-09-30T06:11:35;8.53;;;2.92;;
22318;SDS011;11327;52.334;9.506;2023-09-30T06:14:56;13.30;;;3.02;;
22318;SDS011;11327;52.334;9.506;2023-09-30T06:18:17;6.72;;;3.00;;
22318;SDS011;11327;52.334;9.506;2023-09-30T06:21:38;9.45;;;3.12;;
22318;SDS011;11327;52.334;9.506;2023-09-30T06:24:59;11.20;;;3.27;;
22318;SDS011;11327;52.334;9.506;2023-09-30T06:28:20;11.45;;;3.17;;
22318;SDS011;11327;52.334;9.506;2023-09-30T06:31:43;8.83;;;3.15;;
22318;SDS011;11327;52.334;9.506;2023-09-30T06:35:04;9.65;;;3.30;;
22318;SDS011;11327;52.334;9.506;2023-09-30T06:38:26;10.50;;;3.12;;
22318;SDS011;11327;52.334;9.506;2023-09-30T06:41:47;12.20;;;3.52;;
22318;SDS011;11327;52.334;9.506;2023-09-30T06:45:08;9.88;;;3.08;;
22318;SDS011;11327;52.334;9.506;2023-09-30T06:48:30;13.25;;;3.75;;
22318;SDS011;11327;52.334;9.506;2023-09-30T06:51:51;8.70;;;2.87;;
22318;SDS011;11327;52.334;9.506;2023-09-30T06:55:11;10.53;;;3.00;;
22318;SDS011;11327;52.334;9.506;2023-09-30T06:58:37;9.08;;;2.80;;
22318;SDS011;11327;52.334;9.506;2023-09-30T07:01:57;10.98;;;3.15;;
22318;SDS011;11327;52.334;9.506;2023-09-30T07:05:19;13.03;;;3.45;;
22318;SDS011;11327;52.334;9.506;2023-09-30T07:08:39;10.88;;;2.70;;
22318;SDS011;11327;52.334;9.506;2023-09-30T07:12:00;12.53;;;3.37;;
22318;SDS011;11327;52.334;9.506;2023-09-30T07:15:21;11.48;;;3.17;;
22318;SDS011;11327;52.334;9.506;2023-09-30T07:18:42;12.37;;;3.30;;
22318;SDS011;11327;52.334;9.506;2023-09-30T07:22:03;7.40;;;2.60;;
22318;SDS011;11327;52.334;9.506;2023-09-30T07:25:23;9.78;;;2.67;;
22318;SDS011;11327;52.334;9.506;2023-09-30T07:28:44;10.58;;;2.87;;
22318;SDS011;11327;52.334;9.506;2023-09-30T07:32:06;11.60;;;3.08;;
22318;SDS011;11327;52.334;9.506;2023-09-30T07:35:28;9.13;;;2.67;;
22318;SDS011;11327;52.334;9.506;2023-09-30T07:38:49;10.85;;;3.02;;
22318;SDS011;11327;52.334;9.506;2023-09-30T07:42:10;6.22;;;2.50;;
22318;SDS011;11327;52.334;9.506;2023-09-30T07:45:31;10.32;;;2.58;;
22318;SDS011;11327;52.334;9.506;2023-09-30T07:48:51;12.15;;;2.58;;
22318;SDS011;11327;52.334;9.506;2023-09-30T07:52:13;10.13;;;2.50;;
22318;SDS011;11327;52.334;9.506;2023-09-30T07:55:33;8.63;;;2.37;;
22318;SDS011;11327;52.334;9.506;2023-09-30T07:58:54;9.18;;;3.10;;
22318;SDS011;11327;52.334;9.506;2023-09-30T08:02:15;7.08;;;2.17;;
22318;SDS011;11327;52.334;9.506;2023-09-30T08:05:35;9.90;;;2.60;;
22318;SDS011;11327;52.334;9.506;2023-09-30T08:08:57;7.22;;;2.50;;
22318;SDS011;11327;52.334;9.506;2023-09-30T08:12:18;11.15;;;2.72;;
22318;SDS011;11327;52.334;9.506;2023-09-30T08:15:39;7.67;;;2.50;;
22318;SDS011;11327;52.334;9.506;2023-09-30T08:18:59;8.05;;;2.58;;
22318;SDS011;11327;52.334;9.506;2023-09-30T08:22:20;13.45;;;2.80;;
22318;SDS011;11327;52.334;9.506;2023-09-30T08:25:41;11.18;;;2.45;;
22318;SDS011;11327;52.334;9.506;2023-09-30T08:29:02;9.55;;;2.27;;
22318;SDS011;11327;52.334;9.506;2023-09-30T08:32:23;9.95;;;3.10;;
22318;SDS011;11327;52.334;9.506;2023-09-30T08:35:43;10.60;;;2.85;;
22318;SDS011;11327;52.334;9.506;2023-09-30T08:39:04;11.05;;;2.67;;
22318;SDS011;11327;52.334;9.506;2023-09-30T08:42:25;9.58;;;2.37;;
22318;SDS011;11327;52.334;9.506;2023-09-30T08:45:49;8.00;;;2.35;;
22318;SDS011;11327;52.334;9.506;2023-09-30T08:49:13;7.45;;;2.40;;
22318;SDS011;11327;52.334;9.506;2023-09-30T08:52:36;6.65;;;2.58;;
22318;SDS011;11327;52.334;9.506;2023-09-30T08:55:58;9.45;;;2.52;;
22318;SDS011;11327;52.334;9.506;2023-09-30T08:59:21;11.03;;;2.85;;
22318;SDS011;11327;52.334;9.506;2023-09-30T09:02:43;7.72;;;2.27;;
22318;SDS011;11327;52.334;9.506;2023-09-30T09:06:04;6.65;;;2.50;;
22318;SDS011;11327;52.334;9.506;2023-09-30T09:09:24;7.60;;;2.55;;
22318;SDS011;11327;52.334;9.506;2023-09-30T09:12:50;7.92;;;2.27;;
22318;SDS011;11327;52.334;9.506;2023-09-30T09:16:10;10.30;;;2.12;;
22318;SDS011;11327;52.334;9.506;2023-09-30T09:19:31;8.80;;;2.45;;
22318;SDS011;11327;52.334;9.506;2023-09-30T09:22:52;8.03;;;2.25;;
22318;SDS011;11327;52.334;9.506;2023-09-30T09:26:28;7.92;;;2.50;;
22318;SDS011;11327;52.334;9.506;2023-09-30T09:29:50;6.22;;;2.05;;
22318;SDS011;11327;52.334;9.506;2023-09-30T09:33:13;9.15;;;2.42;;
22318;SDS011;11327;52.334;9.506;2023-09-30T09:36:41;6.95;;;1.85;;
22318;SDS011;11327;52.334;9.506;2023-09-30T09:40:04;5.75;;;1.80;;
22318;SDS011;11327;52.334;9.506;2023-09-30T09:43:27;6.83;;;1.90;;
22318;SDS011;11327;52.334;9.506;2023-09-30T09:46:50;6.78;;;2.05;;
22318;SDS011;11327;52.334;9.506;2023-09-30T09:50:11;5.20;;;1.92;;
22318;SDS011;11327;52.334;9.506;2023-09-30T09:53:34;7.37;;;2.40;;
22318;SDS011;11327;52.334;9.506;2023-09-30T09:56:56;6.30;;;1.90;;
22318;SDS011;11327;52.334;9.506;2023-09-30T10:00:22;6.28;;;2.00;;
22318;SDS011;11327;52.334;9.506;2023-09-30T10:03:44;5.72;;;1.60;;
22318;SDS011;11327;52.334;9.506;2023-09-30T10:07:04;6.22;;;1.55;;
22318;SDS011;11327;52.334;9.506;2023-09-30T10:10:27;5.25;;;1.60;;
22318;SDS011;11327;52.334;9.506;2023-09-30T10:13:56;5.72;;;1.52;;
22318;SDS011;11327;52.334;9.506;2023-09-30T10:17:19;5.65;;;1.45;;
22318;SDS011;11327;52.334;9.506;2023-09-30T10:20:41;5.60;;;1.70;;
22318;SDS011;11327;52.334;9.506;2023-09-30T10:27:48;5.62;;;1.90;;
22318;SDS011;11327;52.334;9.506;2023-09-30T10:34:48;5.80;;;1.82;;
22318;SDS011;11327;52.334;9.506;2023-09-30T10:49:14;4.40;;;1.25;;
22318;SDS011;11327;52.334;9.506;2023-09-30T10:52:37;8.50;;;1.80;;
22318;SDS011;11327;52.334;9.506;2023-09-30T10:55:59;3.87;;;1.62;;
22318;SDS011;11327;52.334;9.506;2023-09-30T11:02:50;6.87;;;1.75;;
22318;SDS011;11327;52.334;9.506;2023-09-30T11:06:12;4.30;;;1.65;;
22318;SDS011;11327;52.334;9.506;2023-09-30T11:09:36;5.72;;;1.85;;
22318;SDS011;11327;52.334;9.506;2023-09-30T11:12:57;6.08;;;1.75;;
22318;SDS011;11327;52.334;9.506;2023-09-30T11:16:18;3.98;;;1.30;;
22318;SDS011;11327;52.334;9.506;2023-09-30T11:19:46;5.00;;;1.47;;
22318;SDS011;11327;52.334;9.506;2023-09-30T11:23:11;6.47;;;1.45;;
22318;SDS011;11327;52.334;9.506;2023-09-30T11:26:33;3.35;;;1.35;;
22318;SDS011;11327;52.334;9.506;2023-09-30T11:29:54;4.92;;;1.40;;
22318;SDS011;11327;52.334;9.506;2023-09-30T11:33:15;3.75;;;1.12;;
22318;SDS011;11327;52.334;9.506;2023-09-30T11:36:36;6.12;;;1.50;;
22318;SDS011;11327;52.334;9.506;2023-09-30T11:40:13;2.85;;;1.37;;
22318;SDS011;11327;52.334;9.506;2023-09-30T11:46:56;6.65;;;1.80;;
22318;SDS011;11327;52.334;9.506;2023-09-30T11:50:20;5.53;;;1.67;;
22318;SDS011;11327;52.334;9.506;2023-09-30T11:53:41;3.67;;;1.42;;
22318;SDS011;11327;52.334;9.506;2023-09-30T11:57:02;5.83;;;1.50;;
22318;SDS011;11327;52.334;9.506;2023-09-30T12:00:23;3.52;;;1.40;;
22318;SDS011;11327;52.334;9.506;2023-09-30T12:03:44;4.78;;;1.60;;
22318;SDS011;11327;52.334;9.506;2023-09-30T12:07:07;3.60;;;1.50;;
22318;SDS011;11327;52.334;9.506;2023-09-30T12:10:28;7.37;;;1.67;;
22318;SDS011;11327;52.334;9.506;2023-09-30T12:13:51;4.42;;;1.70;;
22318;SDS011;11327;52.334;9.506;2023-09-30T12:17:11;6.20;;;1.70;;
22318;SDS011;11327;52.334;9.506;2023-09-30T12:20:34;5.05;;;1.72;;
22318;SDS011;11327;52.334;9.506;2023-09-30T12:23:55;5.47;;;1.70;;
22318;SDS011;11327;52.334;9.506;2023-09-30T12:27:16;5.70;;;2.00;;
22318;SDS011;11327;52.334;9.506;2023-09-30T12:30:37;5.97;;;1.95;;
22318;SDS011;11327;52.334;9.506;2023-09-30T12:34:00;6.85;;;2.10;;
22318;SDS011;11327;52.334;9.506;2023-09-30T12:37:21;6.37;;;2.12;;
22318;SDS011;11327;52.334;9.506;2023-09-30T12:40:41;5.25;;;2.00;;
22318;SDS011;11327;52.334;9.506;2023-09-30T12:44:04;5.33;;;1.62;;
22318;SDS011;11327;52.334;9.506;2023-09-30T12:47:25;5.37;;;2.08;;
22318;SDS011;11327;52.334;9.506;2023-09-30T12:50:45;5.30;;;2.00;;
22318;SDS011;11327;52.334;9.506;2023-09-30T12:54:06;4.55;;;2.10;;
22318;SDS011;11327;52.334;9.506;2023-09-30T12:57:28;7.72;;;2.15;;
22318;SDS011;11327;52.334;9.506;2023-09-30T13:00:49;5.80;;;2.33;;
22318;SDS011;11327;52.334;9.506;2023-09-30T13:04:10;5.30;;;2.02;;
22318;SDS011;11327;52.334;9.506;2023-09-30T13:07:31;6.35;;;2.05;;
22318;SDS011;11327;52.334;9.506;2023-09-30T13:10:53;4.47;;;1.95;;
22318;SDS011;11327;52.334;9.506;2023-09-30T13:14:13;5.22;;;2.10;;
22318;SDS011;11327;52.334;9.506;2023-09-30T13:17:34;5.62;;;2.10;;
22318;SDS011;11327;52.334;9.506;2023-09-30T13:20:55;4.12;;;2.00;;
22318;SDS011;11327;52.334;9.506;2023-09-30T13:24:17;6.70;;;2.00;;
22318;SDS011;11327;52.334;9.506;2023-09-30T13:27:39;4.95;;;2.02;;
22318;SDS011;11327;52.334;9.506;2023-09-30T13:31:00;5.72;;;1.80;;
22318;SDS011;11327;52.334;9.506;2023-09-30T13:34:21;6.72;;;2.02;;
22318;SDS011;11327;52.334;9.506;2023-09-30T13:37:41;5.70;;;1.82;;
22318;SDS011;11327;52.334;9.506;2023-09-30T13:41:02;4.70;;;1.80;;
22318;SDS011;11327;52.334;9.506;2023-09-30T13:44:23;4.92;;;1.82;;
22318;SDS011;11327;52.334;9.506;2023-09-30T13:47:44;5.45;;;1.60;;
22318;SDS011;11327;52.334;9.506;2023-09-30T13:51:09;3.58;;;1.52;;
22318;SDS011;11327;52.334;9.506;2023-09-30T13:54:27;6.85;;;2.17;;
22318;SDS011;11327;52.334;9.506;2023-09-30T13:57:48;6.05;;;2.22;;
22318;SDS011;11327;52.334;9.506;2023-09-30T14:01:09;3.95;;;1.62;;
22318;SDS011;11327;52.334;9.506;2023-09-30T14:04:32;5.60;;;1.77;;
22318;SDS011;11327;52.334;9.506;2023-09-30T14:07:54;6.25;;;1.90;;
22318;SDS011;11327;52.334;9.506;2023-09-30T14:11:14;4.22;;;1.57;;
22318;SDS011;11327;52.334;9.506;2023-09-30T14:14:35;5.62;;;1.40;;
22318;SDS011;11327;52.334;9.506;2023-09-30T14:17:56;5.87;;;1.95;;
22318;SDS011;11327;52.334;9.506;2023-09-30T14:21:22;6.23;;;2.03;;
22318;SDS011;11327;52.334;9.506;2023-09-30T14:24:43;5.75;;;2.10;;
22318;SDS011;11327;52.334;9.506;2023-09-30T14:28:04;5.33;;;1.90;;
22318;SDS011;11327;52.334;9.506;2023-09-30T14:31:25;3.87;;;1.60;;
22318;SDS011;11327;52.334;9.506;2023-09-30T14:34:46;4.30;;;1.65;;
22318;SDS011;11327;52.334;9.506;2023-09-30T14:38:06;4.45;;;2.08;;
22318;SDS011;11327;52.334;9.506;2023-09-30T14:41:28;4.87;;;1.87;;
22318;SDS011;11327;52.334;9.506;2023-09-30T14:44:49;5.47;;;1.80;;
22318;SDS011;11327;52.334;9.506;2023-09-30T14:48:10;6.25;;;1.90;;
22318;SDS011;11327;52.334;9.506;2023-09-30T14:51:30;5.20;;;1.55;;
22318;SDS011;11327;52.334;9.506;2023-09-30T14:54:51;4.60;;;1.67;;
22318;SDS011;11327;52.334;9.506;2023-09-30T14:58:12;3.58;;;1.90;;
22318;SDS011;11327;52.334;9.506;2023-09-30T15:01:33;5.62;;;2.20;;
22318;SDS011;11327;52.334;9.506;2023-09-30T15:04:53;4.75;;;1.90;;
22318;SDS011;11327;52.334;9.506;2023-09-30T15:08:14;4.55;;;2.08;;
22318;SDS011;11327;52.334;9.506;2023-09-30T15:11:36;4.70;;;1.60;;
22318;SDS011;11327;52.334;9.506;2023-09-30T15:14:57;4.65;;;2.10;;
22318;SDS011;11327;52.334;9.506;2023-09-30T15:18:18;4.28;;;1.90;;
22318;SDS011;11327;52.334;9.506;2023-09-30T15:21:39;5.08;;;2.00;;
22318;SDS011;11327;52.334;9.506;2023-09-30T15:24:59;5.08;;;2.37;;
22318;SDS011;11327;52.334;9.506;2023-09-30T15:28:20;6.83;;;2.47;;
22318;SDS011;11327;52.334;9.506;2023-09-30T15:31:41;5.95;;;2.20;;
22318;SDS011;11327;52.334;9.506;2023-09-30T15:35:01;5.75;;;1.92;;
22318;SDS011;11327;52.334;9.506;2023-09-30T15:38:22;4.80;;;2.10;;
22318;SDS011;11327;52.334;9.506;2023-09-30T15:41:44;4.58;;;1.98;;
22318;SDS011;11327;52.334;9.506;2023-09-30T15:45:05;5.58;;;2.37;;
22318;SDS011;11327;52.334;9.506;2023-09-30T15:48:26;5.35;;;2.20;;
22318;SDS011;11327;52.334;9.506;2023-09-30T15:51:46;4.55;;;2.20;;
22318;SDS011;11327;52.334;9.506;2023-09-30T15:55:07;4.83;;;1.92;;
22318;SDS011;11327;52.334;9.506;2023-09-30T15:58:28;5.85;;;2.35;;
22318;SDS011;11327;52.334;9.506;2023-09-30T16:01:49;7.30;;;2.45;;
22318;SDS011;11327;52.334;9.506;2023-09-30T16:05:10;5.10;;;2.33;;
22318;SDS011;11327;52.334;9.506;2023-09-30T16:08:31;4.70;;;1.95;;
22318;SDS011;11327;52.334;9.506;2023-09-30T16:11:52;6.10;;;2.47;;
22318;SDS011;11327;52.334;9.506;2023-09-30T16:15:12;5.10;;;2.40;;
22318;SDS011;11327;52.334;9.506;2023-09-30T16:18:33;6.35;;;2.40;;
22318;SDS011;11327;52.334;9.506;2023-09-30T16:21:54;4.72;;;2.30;;
22318;SDS011;11327;52.334;9.506;2023-09-30T16:25:16;6.00;;;2.30;;
22318;SDS011;11327;52.334;9.506;2023-09-30T16:28:37;4.40;;;1.98;;
22318;SDS011;11327;52.334;9.506;2023-09-30T16:31:58;5.37;;;2.10;;
22318;SDS011;11327;52.334;9.506;2023-09-30T16:35:19;3.77;;;1.90;;
22318;SDS011;11327;52.334;9.506;2023-09-30T16:38:39;4.45;;;2.30;;
22318;SDS011;11327;52.334;9.506;2023-09-30T16:42:00;4.47;;;2.12;;
22318;SDS011;11327;52.334;9.506;2023-09-30T16:45:21;5.97;;;2.70;;
22318;SDS011;11327;52.334;9.506;2023-09-30T16:48:42;5.75;;;2.22;;
22318;SDS011;11327;52.334;9.506;2023-09-30T16:52:04;4.67;;;2.15;;
22318;SDS011;11327;52.334;9.506;2023-09-30T16:55:25;3.60;;;2.05;;
22318;SDS011;11327;52.334;9.506;2023-09-30T16:58:46;4.47;;;2.20;;
22318;SDS011;11327;52.334;9.506;2023-09-30T17:02:07;5.92;;;2.72;;
22318;SDS011;11327;52.334;9.506;2023-09-30T17:05:28;7.20;;;2.87;;
22318;SDS011;11327;52.334;9.506;2023-09-30T17:08:51;7.70;;;3.25;;
22318;SDS011;11327;52.334;9.506;2023-09-30T17:12:13;5.53;;;3.08;;
22318;SDS011;11327;52.334;9.506;2023-09-30T17:15:34;5.08;;;2.62;;
22318;SDS011;11327;52.334;9.506;2023-09-30T17:18:56;5.30;;;2.95;;
22318;SDS011;11327;52.334;9.506;2023-09-30T17:22:16;6.58;;;3.45;;
22318;SDS011;11327;52.334;9.506;2023-09-30T17:25:38;6.50;;;4.25;;
22318;SDS011;11327;52.334;9.506;2023-09-30T17:28:58;7.17;;;5.22;;
22318;SDS011;11327;52.334;9.506;2023-09-30T17:32:19;6.20;;;4.20;;
22318;SDS011;11327;52.334;9.506;2023-09-30T17:35:41;4.75;;;3.50;;
22318;SDS011;11327;52.334;9.506;2023-09-30T17:39:02;5.85;;;4.15;;
22318;SDS011;11327;52.334;9.506;2023-09-30T17:42:24;7.83;;;4.75;;
22318;SDS011;11327;52.334;9.506;2023-09-30T17:45:45;5.83;;;4.20;;
22318;SDS011;11327;52.334;9.506;2023-09-30T17:49:06;7.03;;;4.42;;
22318;SDS011;11327;52.334;9.506;2023-09-30T17:52:26;6.35;;;3.87;;
22318;SDS011;11327;52.334;9.506;2023-09-30T17:55:48;5.78;;;4.20;;
22318;SDS011;11327;52.334;9.506;2023-09-30T17:59:09;7.37;;;4.97;;
22318;SDS011;11327;52.334;9.506;2023-09-30T18:02:32;6.83;;;5.03;;
22318;SDS011;11327;52.334;9.506;2023-09-30T18:05:53;7.10;;;5.17;;
22318;SDS011;11327;52.334;9.506;2023-09-30T18:09:14;8.23;;;4.75;;
22318;SDS011;11327;52.334;9.506;2023-09-30T18:12:35;8.00;;;3.70;;
22318;SDS011;11327;52.334;9.506;2023-09-30T18:15:55;6.28;;;3.58;;
22318;SDS011;11327;52.334;9.506;2023-09-30T18:19:16;6.47;;;3.65;;
22318;SDS011;11327;52.334;9.506;2023-09-30T18:22:38;5.12;;;3.40;;
22318;SDS011;11327;52.334;9.506;2023-09-30T18:26:00;5.15;;;3.42;;
22318;SDS011;11327;52.334;9.506;2023-09-30T18:29:21;6.45;;;3.70;;
22318;SDS011;11327;52.334;9.506;2023-09-30T18:32:42;5.53;;;3.50;;
22318;SDS011;11327;52.334;9.506;2023-09-30T18:36:06;4.87;;;3.45;;
22318;SDS011;11327;52.334;9.506;2023-09-30T18:39:29;4.83;;;3.60;;
22318;SDS011;11327;52.334;9.506;2023-09-30T18:42:49;5.45;;;3.85;;
22318;SDS011;11327;52.334;9.506;2023-09-30T18:46:10;6.45;;;3.92;;
22318;SDS011;11327;52.334;9.506;2023-09-30T18:49:32;6.25;;;4.20;;
22318;SDS011;11327;52.334;9.506;2023-09-30T18:52:53;7.55;;;4.42;;
22318;SDS011;11327;52.334;9.506;2023-09-30T18:56:19;5.25;;;3.47;;
22318;SDS011;11327;52.334;9.506;2023-09-30T18:59:41;6.28;;;4.08;;
22318;SDS011;11327;52.334;9.506;2023-09-30T19:03:02;6.83;;;4.10;;
22318;SDS011;11327;52.334;9.506;2023-09-30T19:06:23;6.58;;;4.15;;
22318;SDS011;11327;52.334;9.506;2023-09-30T19:09:44;8.00;;;4.12;;
22318;SDS011;11327;52.334;9.506;2023-09-30T19:13:04;8.35;;;4.28;;
22318;SDS011;11327;52.334;9.506;2023-09-30T19:16:26;6.85;;;4.08;;
22318;SDS011;11327;52.334;9.506;2023-09-30T19:19:47;5.60;;;4.20;;
22318;SDS011;11327;52.334;9.506;2023-09-30T19:23:08;7.22;;;4.40;;
22318;SDS011;11327;52.334;9.506;2023-09-30T19:26:29;7.95;;;4.33;;
22318;SDS011;11327;52.334;9.506;2023-09-30T19:29:49;7.12;;;4.20;;
22318;SDS011;11327;52.334;9.506;2023-09-30T19:33:10;5.10;;;3.75;;
22318;SDS011;11327;52.334;9.506;2023-09-30T19:36:31;8.33;;;4.30;;
22318;SDS011;11327;52.334;9.506;2023-09-30T19:39:52;11.05;;;7.65;;
22318;SDS011;11327;52.334;9.506;2023-09-30T19:43:12;10.98;;;7.30;;
22318;SDS011;11327;52.334;9.506;2023-09-30T19:46:33;7.78;;;5.05;;
22318;SDS011;11327;52.334;9.506;2023-09-30T19:49:54;8.40;;;5.47;;
22318;SDS011;11327;52.334;9.506;2023-09-30T19:53:15;7.25;;;4.97;;
22318;SDS011;11327;52.334;9.506;2023-09-30T19:56:36;7.85;;;4.37;;
22318;SDS011;11327;52.334;9.506;2023-09-30T19:59:56;6.33;;;3.80;;
22318;SDS011;11327;52.334;9.506;2023-09-30T20:03:17;6.00;;;4.10;;
22318;SDS011;11327;52.334;9.506;2023-09-30T20:06:38;5.47;;;4.05;;
22318;SDS011;11327;52.334;9.506;2023-09-30T20:09:59;5.90;;;4.03;;
22318;SDS011;11327;52.334;9.506;2023-09-30T20:13:22;6.45;;;4.10;;
22318;SDS011;11327;52.334;9.506;2023-09-30T20:16:42;7.97;;;3.95;;
22318;SDS011;11327;52.334;9.506;2023-09-30T20:20:05;5.70;;;3.90;;
22318;SDS011;11327;52.334;9.506;2023-09-30T20:23:27;5.60;;;3.77;;
22318;SDS011;11327;52.334;9.506;2023-09-30T20:26:48;6.47;;;3.35;;
22318;SDS011;11327;52.334;9.506;2023-09-30T20:30:10;6.62;;;3.90;;
22318;SDS011;11327;52.334;9.506;2023-09-30T20:33:31;9.18;;;4.33;;